sensor_id;sensor_type;location;lat;lon;timestamp;pressure;altitude;pressure_sealevel;temperature;humidity
10881;BME280;5493;48.884;8.338;2023-02-14T00:02:16;102180.59;;;3.36;100.00
10881;BME280;5493;48.884;8.338;2023-02-14T00:04:43;102192.69;;;3.40;100.00
10881;BME280;5493;48.884;8.338;2023-02-14T00:07:12;102181.56;;;3.35;100.00
10881;BME280;5493;48.884;8.338;2023-02-14T00:09:39;102178.53;;;3.40;100.00
10881;BME280;5493;48.884;8.338;2023-02-14T00:12:05;102173.88;;;3.53;100.00
10881;BME280;5493;48.884;8.338;2023-02-14T00:14:33;102168.03;;;3.59;100.00
10881;BME280;5493;48.884;8.338;2023-02-14T00:17:17;102170.72;;;3.48;100.00
10881;BME280;5493;48.884;8.338;2023-02-14T00:19:44;102168.75;;;3.61;100.00
10881;BME280;5493;48.884;8.338;2023-02-14T00:22:10;102170.53;;;3.40;100.00
10881;BME280;5493;48.884;8.338;2023-02-14T00:24:37;102170.06;;;3.35;100.00
10881;BME280;5493;48.884;8.338;2023-02-14T00:27:03;102161.31;;;3.33;100.00
10881;BME280;5493;48.884;8.338;2023-02-14T00:29:32;102169.47;;;3.31;100.00
10881;BME280;5493;48.884;8.338;2023-02-14T00:31:59;102166.28;;;3.06;100.00
10881;BME280;5493;48.884;8.338;2023-02-14T00:34:26;102171.59;;;3.06;100.00
10881;BME280;5493;48.884;8.338;2023-02-14T00:36:53;102169.81;;;2.95;100.00
10881;BME280;5493;48.884;8.338;2023-02-14T00:39:19;102167.25;;;2.93;100.00
10881;BME280;5493;48.884;8.338;2023-02-14T00:41:46;102160.38;;;2.91;100.00
10881;BME280;5493;48.884;8.338;2023-02-14T00:44:13;102164.00;;;2.79;100.00
10881;BME280;5493;48.884;8.338;2023-02-14T00:46:41;102161.22;;;2.91;100.00
10881;BME280;5493;48.884;8.338;2023-02-14T00:49:08;102170.41;;;2.98;100.00
10881;BME280;5493;48.884;8.338;2023-02-14T00:51:35;102168.78;;;3.18;100.00
10881;BME280;5493;48.884;8.338;2023-02-14T00:54:01;102165.28;;;3.18;100.00
10881;BME280;5493;48.884;8.338;2023-02-14T00:56:28;102160.13;;;2.94;100.00
10881;BME280;5493;48.884;8.338;2023-02-14T00:58:54;102161.88;;;3.16;100.00
10881;BME280;5493;48.884;8.338;2023-02-14T01:01:21;102160.53;;;3.21;100.00
10881;BME280;5493;48.884;8.338;2023-02-14T01:03:49;102169.88;;;3.16;100.00
10881;BME280;5493;48.884;8.338;2023-02-14T01:06:15;102168.13;;;3.26;100.00
10881;BME280;5493;48.884;8.338;2023-02-14T01:08:42;102158.63;;;3.44;100.00
10881;BME280;5493;48.884;8.338;2023-02-14T01:11:10;102160.31;;;3.45;100.00
10881;BME280;5493;48.884;8.338;2023-02-14T01:13:37;102161.09;;;3.36;100.00
10881;BME280;5493;48.884;8.338;2023-02-14T01:16:06;102156.66;;;3.57;100.00
10881;BME280;5493;48.884;8.338;2023-02-14T01:18:33;102168.69;;;3.40;100.00
10881;BME280;5493;48.884;8.338;2023-02-14T01:21:14;102172.69;;;3.46;100.00
10881;BME280;5493;48.884;8.338;2023-02-14T01:23:42;102177.06;;;3.47;100.00
10881;BME280;5493;48.884;8.338;2023-02-14T01:26:09;102182.84;;;3.52;100.00
10881;BME280;5493;48.884;8.338;2023-02-14T01:28:36;102183.16;;;3.27;100.00
10881;BME280;5493;48.884;8.338;2023-02-14T01:31:08;102175.69;;;3.53;100.00
10881;BME280;5493;48.884;8.338;2023-02-14T01:33:35;102180.13;;;3.63;100.00
10881;BME280;5493;48.884;8.338;2023-02-14T01:36:01;102175.06;;;3.60;100.00
10881;BME280;5493;48.884;8.338;2023-02-14T01:38:29;102181.41;;;3.48;100.00
10881;BME280;5493;48.884;8.338;2023-02-14T01:40:56;102173.81;;;3.64;100.00
10881;BME280;5493;48.884;8.338;2023-02-14T01:43:23;102170.25;;;3.54;100.00
10881;BME280;5493;48.884;8.338;2023-02-14T01:45:50;102169.97;;;3.57;100.00
10881;BME280;5493;48.884;8.338;2023-02-14T01:48:18;102164.44;;;3.49;100.00
10881;BME280;5493;48.884;8.338;2023-02-14T01:50:47;102167.88;;;3.40;100.00
10881;BME280;5493;48.884;8.338;2023-02-14T01:53:19;102169.75;;;3.49;100.00
10881;BME280;5493;48.884;8.338;2023-02-14T01:55:51;102174.50;;;3.45;100.00
10881;BME280;5493;48.884;8.338;2023-02-14T01:58:23;102178.75;;;3.37;100.00
10881;BME280;5493;48.884;8.338;2023-02-14T02:00:50;102175.09;;;3.49;100.00
10881;BME280;5493;48.884;8.338;2023-02-14T02:03:23;102171.28;;;3.63;100.00
10881;BME280;5493;48.884;8.338;2023-02-14T02:05:54;102169.13;;;3.57;100.00
10881;BME280;5493;48.884;8.338;2023-02-14T02:08:23;102165.88;;;3.53;100.00
10881;BME280;5493;48.884;8.338;2023-02-14T02:10:50;102167.91;;;3.61;100.00
10881;BME280;5493;48.884;8.338;2023-02-14T02:13:19;102166.59;;;3.23;100.00
10881;BME280;5493;48.884;8.338;2023-02-14T02:15:51;102169.50;;;3.20;100.00
10881;BME280;5493;48.884;8.338;2023-02-14T02:18:25;102174.91;;;3.30;100.00
10881;BME280;5493;48.884;8.338;2023-02-14T02:21:16;102174.25;;;3.17;100.00
10881;BME280;5493;48.884;8.338;2023-02-14T02:24:08;102173.06;;;3.10;100.00
10881;BME280;5493;48.884;8.338;2023-02-14T02:36:14;102159.75;;;2.87;100.00
10881;BME280;5493;48.884;8.338;2023-02-14T02:39:02;102165.31;;;3.07;100.00
10881;BME280;5493;48.884;8.338;2023-02-14T02:41:40;102158.38;;;3.04;100.00
10881;BME280;5493;48.884;8.338;2023-02-14T02:44:14;102156.56;;;3.05;100.00
10881;BME280;5493;48.884;8.338;2023-02-14T02:46:47;102152.47;;;3.01;100.00
10881;BME280;5493;48.884;8.338;2023-02-14T02:49:25;102155.53;;;2.96;100.00
10881;BME280;5493;48.884;8.338;2023-02-14T02:52:16;102157.03;;;2.56;100.00
10881;BME280;5493;48.884;8.338;2023-02-14T02:55:06;102150.34;;;2.61;100.00
10881;BME280;5493;48.884;8.338;2023-02-14T02:57:39;102152.16;;;2.61;100.00
10881;BME280;5493;48.884;8.338;2023-02-14T03:00:09;102144.00;;;2.95;100.00
10881;BME280;5493;48.884;8.338;2023-02-14T03:02:39;102146.94;;;2.81;100.00
10881;BME280;5493;48.884;8.338;2023-02-14T03:05:21;102141.88;;;2.78;100.00
10881;BME280;5493;48.884;8.338;2023-02-14T03:07:49;102147.22;;;2.78;100.00
10881;BME280;5493;48.884;8.338;2023-02-14T03:10:18;102152.91;;;2.63;100.00
10881;BME280;5493;48.884;8.338;2023-02-14T03:13:21;102147.78;;;2.93;100.00
10881;BME280;5493;48.884;8.338;2023-02-14T03:15:56;102145.50;;;2.88;100.00
10881;BME280;5493;48.884;8.338;2023-02-14T03:18:38;102146.63;;;2.53;100.00
10881;BME280;5493;48.884;8.338;2023-02-14T03:21:17;102148.03;;;2.79;100.00
10881;BME280;5493;48.884;8.338;2023-02-14T03:23:52;102146.81;;;2.83;100.00
10881;BME280;5493;48.884;8.338;2023-02-14T03:26:27;102148.50;;;2.95;100.00
10881;BME280;5493;48.884;8.338;2023-02-14T03:29:00;102142.75;;;3.22;100.00
10881;BME280;5493;48.884;8.338;2023-02-14T03:31:29;102148.19;;;3.20;100.00
10881;BME280;5493;48.884;8.338;2023-02-14T03:34:02;102152.75;;;2.86;100.00
10881;BME280;5493;48.884;8.338;2023-02-14T03:36:37;102149.72;;;2.91;100.00
10881;BME280;5493;48.884;8.338;2023-02-14T03:39:09;102158.97;;;3.19;100.00
10881;BME280;5493;48.884;8.338;2023-02-14T03:41:41;102156.53;;;3.16;100.00
10881;BME280;5493;48.884;8.338;2023-02-14T03:44:09;102153.16;;;3.25;100.00
10881;BME280;5493;48.884;8.338;2023-02-14T03:46:39;102157.88;;;3.21;100.00
10881;BME280;5493;48.884;8.338;2023-02-14T03:49:12;102156.88;;;3.22;100.00
10881;BME280;5493;48.884;8.338;2023-02-14T03:51:40;102160.44;;;3.12;100.00
10881;BME280;5493;48.884;8.338;2023-02-14T03:54:12;102155.06;;;3.23;100.00
10881;BME280;5493;48.884;8.338;2023-02-14T03:56:42;102159.09;;;3.17;100.00
10881;BME280;5493;48.884;8.338;2023-02-14T03:59:13;102158.50;;;3.14;100.00
10881;BME280;5493;48.884;8.338;2023-02-14T04:01:44;102158.22;;;2.85;100.00
10881;BME280;5493;48.884;8.338;2023-02-14T04:04:14;102155.81;;;2.71;100.00
10881;BME280;5493;48.884;8.338;2023-02-14T04:06:41;102156.41;;;2.63;100.00
10881;BME280;5493;48.884;8.338;2023-02-14T04:09:07;102160.03;;;2.51;100.00
10881;BME280;5493;48.884;8.338;2023-02-14T04:11:35;102164.16;;;2.55;100.00
10881;BME280;5493;48.884;8.338;2023-02-14T04:14:03;102169.13;;;2.48;100.00
10881;BME280;5493;48.884;8.338;2023-02-14T04:16:30;102166.94;;;2.42;100.00
10881;BME280;5493;48.884;8.338;2023-02-14T04:19:16;102169.97;;;2.27;100.00
10881;BME280;5493;48.884;8.338;2023-02-14T04:21:48;102165.34;;;2.18;100.00
10881;BME280;5493;48.884;8.338;2023-02-14T04:24:14;102171.88;;;2.25;100.00
10881;BME280;5493;48.884;8.338;2023-02-14T04:26:42;102161.38;;;2.23;100.00
10881;BME280;5493;48.884;8.338;2023-02-14T04:29:18;102163.06;;;2.58;100.00
10881;BME280;5493;48.884;8.338;2023-02-14T04:31:45;102164.66;;;2.27;100.00
10881;BME280;5493;48.884;8.338;2023-02-14T04:34:11;102157.38;;;2.29;100.00
10881;BME280;5493;48.884;8.338;2023-02-14T04:36:38;102161.13;;;2.26;100.00
10881;BME280;5493;48.884;8.338;2023-02-14T04:39:04;102159.78;;;2.32;100.00
10881;BME280;5493;48.884;8.338;2023-02-14T04:41:31;102156.06;;;2.34;100.00
10881;BME280;5493;48.884;8.338;2023-02-14T04:43:59;102156.16;;;2.33;100.00
10881;BME280;5493;48.884;8.338;2023-02-14T04:46:25;102160.19;;;2.27;100.00
10881;BME280;5493;48.884;8.338;2023-02-14T04:48:52;102157.63;;;2.26;100.00
10881;BME280;5493;48.884;8.338;2023-02-14T04:51:18;102160.53;;;2.45;100.00
10881;BME280;5493;48.884;8.338;2023-02-14T04:53:45;102150.81;;;1.99;100.00
10881;BME280;5493;48.884;8.338;2023-02-14T04:56:11;102157.75;;;2.13;100.00
10881;BME280;5493;48.884;8.338;2023-02-14T04:58:37;102157.47;;;2.05;100.00
10881;BME280;5493;48.884;8.338;2023-02-14T05:01:05;102152.78;;;2.20;100.00
10881;BME280;5493;48.884;8.338;2023-02-14T05:03:32;102153.34;;;1.90;100.00
10881;BME280;5493;48.884;8.338;2023-02-14T05:05:58;102141.91;;;2.56;100.00
10881;BME280;5493;48.884;8.338;2023-02-14T05:08:25;102143.59;;;2.35;100.00
10881;BME280;5493;48.884;8.338;2023-02-14T05:10:53;102145.63;;;2.65;100.00
10881;BME280;5493;48.884;8.338;2023-02-14T05:13:19;102132.81;;;2.59;100.00
10881;BME280;5493;48.884;8.338;2023-02-14T05:15:46;102138.72;;;2.73;100.00
10881;BME280;5493;48.884;8.338;2023-02-14T05:18:14;102134.38;;;2.61;100.00
10881;BME280;5493;48.884;8.338;2023-02-14T05:20:40;102133.91;;;2.23;100.00
10881;BME280;5493;48.884;8.338;2023-02-14T05:23:07;102134.34;;;2.72;100.00
10881;BME280;5493;48.884;8.338;2023-02-14T05:25:37;102137.53;;;2.55;100.00
10881;BME280;5493;48.884;8.338;2023-02-14T05:28:04;102138.97;;;2.70;100.00
10881;BME280;5493;48.884;8.338;2023-02-14T05:30:31;102144.56;;;2.56;100.00
10881;BME280;5493;48.884;8.338;2023-02-14T05:32:57;102150.59;;;2.58;100.00
10881;BME280;5493;48.884;8.338;2023-02-14T05:35:27;102145.28;;;2.47;100.00
10881;BME280;5493;48.884;8.338;2023-02-14T05:37:53;102143.38;;;2.49;100.00
10881;BME280;5493;48.884;8.338;2023-02-14T05:40:20;102149.91;;;2.45;100.00
10881;BME280;5493;48.884;8.338;2023-02-14T05:42:47;102149.16;;;2.43;100.00
10881;BME280;5493;48.884;8.338;2023-02-14T05:45:13;102158.47;;;2.15;100.00
10881;BME280;5493;48.884;8.338;2023-02-14T05:47:40;102160.28;;;2.15;100.00
10881;BME280;5493;48.884;8.338;2023-02-14T05:50:07;102157.94;;;1.88;100.00
10881;BME280;5493;48.884;8.338;2023-02-14T05:52:35;102167.00;;;1.96;100.00
10881;BME280;5493;48.884;8.338;2023-02-14T05:55:01;102165.50;;;1.81;100.00
10881;BME280;5493;48.884;8.338;2023-02-14T05:57:28;102165.28;;;1.73;100.00
10881;BME280;5493;48.884;8.338;2023-02-14T05:59:55;102172.41;;;1.73;100.00
10881;BME280;5493;48.884;8.338;2023-02-14T06:02:21;102172.88;;;1.78;100.00
10881;BME280;5493;48.884;8.338;2023-02-14T06:04:48;102168.13;;;1.70;100.00
10881;BME280;5493;48.884;8.338;2023-02-14T06:07:15;102164.50;;;1.95;100.00
10881;BME280;5493;48.884;8.338;2023-02-14T06:09:42;102168.97;;;2.06;100.00
10881;BME280;5493;48.884;8.338;2023-02-14T06:12:09;102168.59;;;2.10;100.00
10881;BME280;5493;48.884;8.338;2023-02-14T06:14:36;102169.22;;;2.03;100.00
10881;BME280;5493;48.884;8.338;2023-02-14T06:17:03;102172.38;;;2.19;100.00
10881;BME280;5493;48.884;8.338;2023-02-14T06:19:29;102175.72;;;1.87;100.00
10881;BME280;5493;48.884;8.338;2023-02-14T06:21:56;102180.41;;;1.84;100.00
10881;BME280;5493;48.884;8.338;2023-02-14T06:24:22;102183.72;;;1.98;100.00
10881;BME280;5493;48.884;8.338;2023-02-14T06:26:50;102183.31;;;1.81;100.00
10881;BME280;5493;48.884;8.338;2023-02-14T06:29:17;102186.78;;;1.81;100.00
10881;BME280;5493;48.884;8.338;2023-02-14T06:31:44;102186.34;;;1.87;100.00
10881;BME280;5493;48.884;8.338;2023-02-14T06:34:10;102192.91;;;2.06;100.00
10881;BME280;5493;48.884;8.338;2023-02-14T06:36:37;102191.63;;;2.33;100.00
10881;BME280;5493;48.884;8.338;2023-02-14T06:39:03;102185.59;;;2.31;100.00
10881;BME280;5493;48.884;8.338;2023-02-14T06:41:30;102188.97;;;2.33;100.00
10881;BME280;5493;48.884;8.338;2023-02-14T06:43:58;102177.38;;;2.45;100.00
10881;BME280;5493;48.884;8.338;2023-02-14T06:46:24;102185.97;;;2.49;100.00
10881;BME280;5493;48.884;8.338;2023-02-14T06:48:51;102184.25;;;2.59;100.00
10881;BME280;5493;48.884;8.338;2023-02-14T06:51:17;102189.56;;;2.48;100.00
10881;BME280;5493;48.884;8.338;2023-02-14T06:53:44;102193.78;;;2.06;100.00
10881;BME280;5493;48.884;8.338;2023-02-14T06:56:10;102190.19;;;2.40;100.00
10881;BME280;5493;48.884;8.338;2023-02-14T06:58:37;102193.19;;;2.47;100.00
10881;BME280;5493;48.884;8.338;2023-02-14T07:01:05;102194.19;;;2.35;100.00
10881;BME280;5493;48.884;8.338;2023-02-14T07:03:31;102198.63;;;2.12;100.00
10881;BME280;5493;48.884;8.338;2023-02-14T07:05:58;102199.47;;;2.13;100.00
10881;BME280;5493;48.884;8.338;2023-02-14T07:08:24;102202.19;;;2.00;100.00
10881;BME280;5493;48.884;8.338;2023-02-14T07:10:54;102202.16;;;1.89;100.00
10881;BME280;5493;48.884;8.338;2023-02-14T07:13:21;102195.19;;;1.88;100.00
10881;BME280;5493;48.884;8.338;2023-02-14T07:15:47;102199.94;;;1.72;100.00
10881;BME280;5493;48.884;8.338;2023-02-14T07:18:15;102193.53;;;2.09;100.00
10881;BME280;5493;48.884;8.338;2023-02-14T07:20:41;102185.91;;;2.05;100.00
10881;BME280;5493;48.884;8.338;2023-02-14T07:23:09;102182.69;;;1.88;100.00
10881;BME280;5493;48.884;8.338;2023-02-14T07:25:36;102182.84;;;1.87;100.00
10881;BME280;5493;48.884;8.338;2023-02-14T07:28:03;102188.53;;;1.93;100.00
10881;BME280;5493;48.884;8.338;2023-02-14T07:30:29;102189.66;;;2.02;100.00
10881;BME280;5493;48.884;8.338;2023-02-14T07:32:56;102191.72;;;2.10;100.00
10881;BME280;5493;48.884;8.338;2023-02-14T07:35:25;102186.81;;;2.38;100.00
10881;BME280;5493;48.884;8.338;2023-02-14T07:37:51;102182.88;;;2.09;100.00
10881;BME280;5493;48.884;8.338;2023-02-14T07:40:18;102188.06;;;2.11;100.00
10881;BME280;5493;48.884;8.338;2023-02-14T07:42:51;102188.19;;;1.98;100.00
10881;BME280;5493;48.884;8.338;2023-02-14T07:45:18;102194.63;;;2.29;100.00
10881;BME280;5493;48.884;8.338;2023-02-14T07:47:46;102191.75;;;2.43;100.00
10881;BME280;5493;48.884;8.338;2023-02-14T07:50:13;102194.03;;;2.36;100.00
10881;BME280;5493;48.884;8.338;2023-02-14T07:52:40;102192.56;;;2.21;100.00
10881;BME280;5493;48.884;8.338;2023-02-14T07:55:08;102187.75;;;2.26;100.00
10881;BME280;5493;48.884;8.338;2023-02-14T07:57:34;102193.69;;;2.41;100.00
10881;BME280;5493;48.884;8.338;2023-02-14T08:00:02;102188.63;;;2.60;100.00
10881;BME280;5493;48.884;8.338;2023-02-14T08:02:29;102189.81;;;2.67;100.00
10881;BME280;5493;48.884;8.338;2023-02-14T08:04:55;102188.47;;;2.39;100.00
10881;BME280;5493;48.884;8.338;2023-02-14T08:07:22;102188.97;;;2.78;100.00
10881;BME280;5493;48.884;8.338;2023-02-14T08:09:49;102190.19;;;2.85;100.00
10881;BME280;5493;48.884;8.338;2023-02-14T08:12:16;102193.81;;;2.73;100.00
10881;BME280;5493;48.884;8.338;2023-02-14T08:15:00;102188.69;;;3.03;100.00
10881;BME280;5493;48.884;8.338;2023-02-14T08:17:40;102189.06;;;2.87;100.00
10881;BME280;5493;48.884;8.338;2023-02-14T08:20:07;102188.56;;;3.05;100.00
10881;BME280;5493;48.884;8.338;2023-02-14T08:22:34;102183.81;;;3.08;100.00
10881;BME280;5493;48.884;8.338;2023-02-14T08:25:02;102181.66;;;3.02;100.00
10881;BME280;5493;48.884;8.338;2023-02-14T08:27:28;102187.13;;;2.89;100.00
10881;BME280;5493;48.884;8.338;2023-02-14T08:29:55;102183.34;;;3.14;100.00
10881;BME280;5493;48.884;8.338;2023-02-14T08:32:21;102183.94;;;3.18;100.00
10881;BME280;5493;48.884;8.338;2023-02-14T08:34:48;102182.06;;;2.75;100.00
10881;BME280;5493;48.884;8.338;2023-02-14T08:37:14;102190.44;;;2.71;100.00
10881;BME280;5493;48.884;8.338;2023-02-14T08:39:41;102193.28;;;3.01;100.00
10881;BME280;5493;48.884;8.338;2023-02-14T08:42:09;102192.06;;;3.05;100.00
10881;BME280;5493;48.884;8.338;2023-02-14T08:44:36;102196.69;;;2.92;100.00
10881;BME280;5493;48.884;8.338;2023-02-14T08:47:02;102194.38;;;3.10;100.00
10881;BME280;5493;48.884;8.338;2023-02-14T08:49:29;102191.13;;;2.95;100.00
10881;BME280;5493;48.884;8.338;2023-02-14T08:51:55;102194.31;;;2.78;100.00
10881;BME280;5493;48.884;8.338;2023-02-14T08:54:22;102200.63;;;3.20;100.00
10881;BME280;5493;48.884;8.338;2023-02-14T08:56:48;102195.38;;;3.29;100.00
10881;BME280;5493;48.884;8.338;2023-02-14T08:59:16;102187.13;;;3.43;100.00
10881;BME280;5493;48.884;8.338;2023-02-14T09:01:43;102190.75;;;3.42;100.00
10881;BME280;5493;48.884;8.338;2023-02-14T09:04:09;102191.44;;;3.56;100.00
10881;BME280;5493;48.884;8.338;2023-02-14T09:06:36;102191.31;;;3.57;100.00
10881;BME280;5493;48.884;8.338;2023-02-14T09:09:03;102196.47;;;2.84;100.00
10881;BME280;5493;48.884;8.338;2023-02-14T09:11:30;102197.56;;;2.70;100.00
10881;BME280;5493;48.884;8.338;2023-02-14T09:13:57;102200.56;;;2.99;100.00
10881;BME280;5493;48.884;8.338;2023-02-14T09:16:25;102193.03;;;3.04;100.00
10881;BME280;5493;48.884;8.338;2023-02-14T09:18:52;102189.88;;;3.10;100.00
10881;BME280;5493;48.884;8.338;2023-02-14T09:21:21;102185.59;;;3.19;100.00
10881;BME280;5493;48.884;8.338;2023-02-14T09:23:48;102186.41;;;2.98;100.00
10881;BME280;5493;48.884;8.338;2023-02-14T09:26:15;102189.09;;;3.30;100.00
10881;BME280;5493;48.884;8.338;2023-02-14T09:28:42;102184.97;;;3.58;100.00
10881;BME280;5493;48.884;8.338;2023-02-14T09:31:10;102175.44;;;3.76;100.00
10881;BME280;5493;48.884;8.338;2023-02-14T09:33:39;102182.16;;;3.39;100.00
10881;BME280;5493;48.884;8.338;2023-02-14T09:36:06;102180.78;;;3.76;100.00
10881;BME280;5493;48.884;8.338;2023-02-14T09:38:45;102175.72;;;3.73;100.00
10881;BME280;5493;48.884;8.338;2023-02-14T09:41:31;102181.84;;;3.32;100.00
10881;BME280;5493;48.884;8.338;2023-02-14T09:44:05;102178.53;;;3.40;100.00
10881;BME280;5493;48.884;8.338;2023-02-14T09:46:39;102172.66;;;3.78;100.00
10881;BME280;5493;48.884;8.338;2023-02-14T09:49:12;102178.25;;;3.54;100.00
10881;BME280;5493;48.884;8.338;2023-02-14T09:51:45;102174.38;;;3.47;100.00
10881;BME280;5493;48.884;8.338;2023-02-14T09:54:15;102176.91;;;3.17;100.00
10881;BME280;5493;48.884;8.338;2023-02-14T09:56:51;102171.50;;;3.07;100.00
10881;BME280;5493;48.884;8.338;2023-02-14T09:59:24;102171.72;;;3.04;100.00
10881;BME280;5493;48.884;8.338;2023-02-14T10:01:57;102167.25;;;2.93;100.00
10881;BME280;5493;48.884;8.338;2023-02-14T10:04:31;102164.88;;;2.57;100.00
10881;BME280;5493;48.884;8.338;2023-02-14T10:07:05;102161.63;;;3.19;100.00
10881;BME280;5493;48.884;8.338;2023-02-14T10:09:48;102161.44;;;3.00;100.00
10881;BME280;5493;48.884;8.338;2023-02-14T10:12:22;102159.22;;;3.16;100.00
10881;BME280;5493;48.884;8.338;2023-02-14T10:14:51;102158.84;;;3.73;100.00
10881;BME280;5493;48.884;8.338;2023-02-14T10:17:24;102163.69;;;4.00;100.00
10881;BME280;5493;48.884;8.338;2023-02-14T10:19:57;102159.91;;;3.81;100.00
10881;BME280;5493;48.884;8.338;2023-02-14T10:22:31;102161.13;;;3.57;100.00
10881;BME280;5493;48.884;8.338;2023-02-14T10:25:03;102158.03;;;3.93;100.00
10881;BME280;5493;48.884;8.338;2023-02-14T10:27:34;102159.03;;;3.60;100.00
10881;BME280;5493;48.884;8.338;2023-02-14T10:30:12;102168.81;;;3.91;100.00
10881;BME280;5493;48.884;8.338;2023-02-14T10:32:43;102165.31;;;4.12;100.00
10881;BME280;5493;48.884;8.338;2023-02-14T10:35:17;102170.78;;;3.89;100.00
10881;BME280;5493;48.884;8.338;2023-02-14T10:37:55;102158.09;;;3.61;100.00
10881;BME280;5493;48.884;8.338;2023-02-14T10:40:38;102158.56;;;3.34;100.00
10881;BME280;5493;48.884;8.338;2023-02-14T10:43:14;102153.22;;;3.34;100.00
10881;BME280;5493;48.884;8.338;2023-02-14T10:45:46;102157.13;;;3.19;100.00
10881;BME280;5493;48.884;8.338;2023-02-14T10:48:20;102153.22;;;3.34;100.00
10881;BME280;5493;48.884;8.338;2023-02-14T10:50:59;102139.84;;;3.45;100.00
10881;BME280;5493;48.884;8.338;2023-02-14T10:53:37;102146.41;;;3.41;100.00
10881;BME280;5493;48.884;8.338;2023-02-14T10:56:12;102149.06;;;3.10;100.00
10881;BME280;5493;48.884;8.338;2023-02-14T10:58:43;102143.22;;;3.47;100.00
10881;BME280;5493;48.884;8.338;2023-02-14T11:01:13;102138.69;;;3.80;100.00
10881;BME280;5493;48.884;8.338;2023-02-14T11:03:41;102139.72;;;3.47;100.00
10881;BME280;5493;48.884;8.338;2023-02-14T11:06:15;102141.81;;;3.43;100.00
10881;BME280;5493;48.884;8.338;2023-02-14T11:08:41;102130.25;;;3.75;100.00
10881;BME280;5493;48.884;8.338;2023-02-14T11:11:15;102123.09;;;4.26;100.00
10881;BME280;5493;48.884;8.338;2023-02-14T11:13:43;102123.72;;;4.39;100.00
10881;BME280;5493;48.884;8.338;2023-02-14T11:16:12;102113.13;;;3.57;100.00
10881;BME280;5493;48.884;8.338;2023-02-14T11:18:43;102111.22;;;4.50;100.00
10881;BME280;5493;48.884;8.338;2023-02-14T11:21:11;102104.34;;;4.47;100.00
10881;BME280;5493;48.884;8.338;2023-02-14T11:23:45;102098.16;;;4.56;100.00
10881;BME280;5493;48.884;8.338;2023-02-14T11:26:21;102106.34;;;4.55;100.00
10881;BME280;5493;48.884;8.338;2023-02-14T11:28:52;102097.75;;;4.61;100.00
10881;BME280;5493;48.884;8.338;2023-02-14T11:31:25;102090.47;;;4.63;100.00
10881;BME280;5493;48.884;8.338;2023-02-14T11:33:52;102093.22;;;4.91;100.00
10881;BME280;5493;48.884;8.338;2023-02-14T11:36:19;102082.06;;;4.77;100.00
10881;BME280;5493;48.884;8.338;2023-02-14T11:38:55;102084.75;;;3.97;100.00
10881;BME280;5493;48.884;8.338;2023-02-14T11:41:23;102075.97;;;3.85;100.00
10881;BME280;5493;48.884;8.338;2023-02-14T11:43:49;102080.63;;;3.93;100.00
10881;BME280;5493;48.884;8.338;2023-02-14T11:46:24;102081.72;;;4.11;100.00
10881;BME280;5493;48.884;8.338;2023-02-14T11:48:57;102079.75;;;4.13;100.00
10881;BME280;5493;48.884;8.338;2023-02-14T11:51:26;102082.59;;;4.21;100.00
10881;BME280;5493;48.884;8.338;2023-02-14T11:53:57;102073.94;;;4.38;100.00
10881;BME280;5493;48.884;8.338;2023-02-14T11:56:45;102071.53;;;4.35;100.00
10881;BME280;5493;48.884;8.338;2023-02-14T11:59:23;102064.50;;;4.34;100.00
10881;BME280;5493;48.884;8.338;2023-02-14T12:01:51;102065.13;;;4.57;100.00
10881;BME280;5493;48.884;8.338;2023-02-14T12:04:20;102050.81;;;4.58;100.00
10881;BME280;5493;48.884;8.338;2023-02-14T12:06:47;102054.44;;;4.57;100.00
10881;BME280;5493;48.884;8.338;2023-02-14T12:09:24;102053.78;;;4.65;100.00
10881;BME280;5493;48.884;8.338;2023-02-14T12:11:53;102045.50;;;4.28;100.00
10881;BME280;5493;48.884;8.338;2023-02-14T12:14:21;102052.84;;;3.95;100.00
10881;BME280;5493;48.884;8.338;2023-02-14T12:16:55;102052.34;;;4.61;100.00
10881;BME280;5493;48.884;8.338;2023-02-14T12:19:29;102043.19;;;4.54;100.00
10881;BME280;5493;48.884;8.338;2023-02-14T12:22:00;102051.38;;;4.71;100.00
10881;BME280;5493;48.884;8.338;2023-02-14T12:24:32;102043.09;;;5.03;100.00
10881;BME280;5493;48.884;8.338;2023-02-14T12:27:09;102033.66;;;4.51;100.00
10881;BME280;5493;48.884;8.338;2023-02-14T12:29:43;102038.13;;;4.41;100.00
10881;BME280;5493;48.884;8.338;2023-02-14T12:32:18;102035.22;;;4.82;100.00
10881;BME280;5493;48.884;8.338;2023-02-14T12:34:45;102030.28;;;4.78;100.00
10881;BME280;5493;48.884;8.338;2023-02-14T12:37:39;102036.03;;;4.54;100.00
10881;BME280;5493;48.884;8.338;2023-02-14T12:40:20;102032.91;;;3.69;100.00
10881;BME280;5493;48.884;8.338;2023-02-14T12:42:57;102024.34;;;4.06;100.00
10881;BME280;5493;48.884;8.338;2023-02-14T12:45:36;102023.97;;;4.20;100.00
10881;BME280;5493;48.884;8.338;2023-02-14T12:48:17;102028.69;;;3.97;100.00
10881;BME280;5493;48.884;8.338;2023-02-14T12:50:53;102026.94;;;4.17;100.00
10881;BME280;5493;48.884;8.338;2023-02-14T12:53:50;102024.44;;;4.25;100.00
10881;BME280;5493;48.884;8.338;2023-02-14T12:56:33;102007.94;;;4.79;100.00
10881;BME280;5493;48.884;8.338;2023-02-14T12:59:14;102002.31;;;5.01;100.00
10881;BME280;5493;48.884;8.338;2023-02-14T13:01:57;102006.13;;;5.08;100.00
10881;BME280;5493;48.884;8.338;2023-02-14T13:04:53;102002.72;;;4.96;100.00
10881;BME280;5493;48.884;8.338;2023-02-14T13:07:33;102002.03;;;5.04;100.00
10881;BME280;5493;48.884;8.338;2023-02-14T13:10:12;101995.84;;;5.13;100.00
10881;BME280;5493;48.884;8.338;2023-02-14T13:12:45;101987.09;;;5.30;100.00
10881;BME280;5493;48.884;8.338;2023-02-14T13:15:20;101984.81;;;5.35;100.00
10881;BME280;5493;48.884;8.338;2023-02-14T13:17:54;101982.34;;;5.05;100.00
10881;BME280;5493;48.884;8.338;2023-02-14T13:20:33;101978.97;;;4.93;100.00
10881;BME280;5493;48.884;8.338;2023-02-14T13:23:04;101973.75;;;4.92;100.00
10881;BME280;5493;48.884;8.338;2023-02-14T13:25:34;101970.25;;;4.82;100.00
10881;BME280;5493;48.884;8.338;2023-02-14T13:28:10;101965.28;;;5.25;100.00